Time;durP1;ratioP1;P1;durP2;ratioP2;P2;SDS_P1;SDS_P2;PMS_P1;PMS_P2;Temp;Humidity;BMP_temperature;BMP_pressure;BME280_temperature;BME280_humidity;BME280_pressure;Samples;Min_cycle;Max_cycle;Signal;HPM_P1;HPM_P2
2022/06/07 00:01:30;;;;;;;;;;;13.50;99.90;;;;;;4896303;29;19965;-57
2022/06/07 00:03:55;;;;;;;;;;;13.40;99.90;;;;;;4893515;29;19923;-58
2022/06/07 00:06:21;;;;;;;;;;;13.40;99.90;;;;;;4892454;29;19911;-58
2022/06/07 00:08:46;;;;;;;;;;;13.30;99.90;;;;;;4895052;29;19975;-58
2022/06/07 00:11:12;;;;;;;;;;;13.20;99.90;;;;;;4893052;29;20395;-58
2022/06/07 00:13:38;;;;;;;;;;;13.10;99.90;;;;;;4893939;29;20363;-58
2022/06/07 00:16:03;;;;;;;;;;;13.20;99.90;;;;;;4889665;29;19911;-58
2022/06/07 00:18:29;;;;;;;;;;;13.20;99.90;;;;;;4896423;29;19911;-58
2022/06/07 00:20:54;;;;;;;;;;;13.10;99.90;;;;;;4893477;29;19979;-59
2022/06/07 00:23:20;;;;;;;;;;;13.10;99.90;;;;;;4893579;29;19911;-59
2022/06/07 00:25:47;;;;;;;;;;;13.10;99.90;;;;;;4894144;29;19959;-59
2022/06/07 00:28:12;;;;;;;;;;;12.90;99.90;;;;;;4893172;29;19963;-58
2022/06/07 00:30:38;;;;;;;;;;;12.90;99.90;;;;;;4893577;29;19919;-58
2022/06/07 00:33:04;;;;;;;;;;;12.80;99.90;;;;;;4892389;29;19915;-58
2022/06/07 00:35:30;;;;;;;;;;;12.80;99.90;;;;;;4891391;29;19916;-58
2022/06/07 00:37:55;;;;;;;;;;;12.70;99.90;;;;;;4891914;29;20071;-58
2022/06/07 00:40:21;;;;;;;;;;;12.60;99.90;;;;;;4896623;29;20565;-59
2022/06/07 00:42:46;;;;;;;;;;;12.30;99.90;;;;;;4897335;29;19919;-59
2022/06/07 00:45:19;;;;;;;;;;;12.50;99.90;;;;;;4893322;29;19911;-58
2022/06/07 00:47:46;;;;;;;;;;;12.50;99.90;;;;;;4896980;29;19925;-58
2022/06/07 00:50:30;;;;;;;;;;;12.60;99.90;;;;;;4893256;29;19911;-58
2022/06/07 00:52:56;;;;;;;;;;;12.50;99.90;;;;;;4891699;29;19917;-58
2022/06/07 00:55:22;;;;;;;;;;;12.20;99.90;;;;;;4893044;29;19911;-58
2022/06/07 00:57:47;;;;;;;;;;;12.10;99.90;;;;;;4894419;29;20010;-58
2022/06/07 01:00:14;;;;;;;;;;;11.90;99.90;;;;;;4896356;29;20364;-58
2022/06/07 01:02:40;;;;;;;;;;;12.00;99.90;;;;;;4893527;29;20640;-58
2022/06/07 01:05:06;;;;;;;;;;;11.90;99.90;;;;;;4893119;29;19928;-58
2022/06/07 01:12:59;;;;;;;;;;;11.70;99.90;;;;;;4895479;29;19935;-58
2022/06/07 01:15:25;;;;;;;;;;;12.00;99.90;;;;;;4892758;29;19911;-58
2022/06/07 01:17:51;;;;;;;;;;;11.80;99.90;;;;;;4892776;29;20268;-59
2022/06/07 01:20:16;;;;;;;;;;;11.60;99.90;;;;;;4894626;29;19963;-58
2022/06/07 01:22:42;;;;;;;;;;;11.70;99.90;;;;;;4894720;29;20006;-58
2022/06/07 01:25:08;;;;;;;;;;;11.70;99.90;;;;;;4892221;29;20454;-58
2022/06/07 01:27:33;;;;;;;;;;;11.60;99.90;;;;;;4892641;29;19949;-58
2022/06/07 01:29:59;;;;;;;;;;;11.40;99.90;;;;;;4897413;29;19971;-58
2022/06/07 01:32:24;;;;;;;;;;;11.40;99.90;;;;;;4891661;29;19922;-58
2022/06/07 01:34:50;;;;;;;;;;;11.50;99.90;;;;;;4890776;29;20332;-58
2022/06/07 01:37:16;;;;;;;;;;;11.40;99.90;;;;;;4893022;29;19943;-58
2022/06/07 01:42:26;;;;;;;;;;;11.40;99.90;;;;;;4892000;29;20045;-58
2022/06/07 01:44:51;;;;;;;;;;;11.30;99.90;;;;;;4891787;29;20401;-58
2022/06/07 01:47:28;;;;;;;;;;;11.30;99.90;;;;;;4891718;29;19922;-58
2022/06/07 01:49:53;;;;;;;;;;;11.10;99.90;;;;;;4892320;29;19917;-58
2022/06/07 01:52:20;;;;;;;;;;;10.90;99.90;;;;;;4891248;29;19911;-58
2022/06/07 01:54:45;;;;;;;;;;;10.80;99.90;;;;;;4892299;29;19931;-58
2022/06/07 01:57:12;;;;;;;;;;;10.90;99.90;;;;;;4891635;29;20299;-59
2022/06/07 01:59:41;;;;;;;;;;;10.80;99.90;;;;;;4890574;29;19915;-59
2022/06/07 02:02:07;;;;;;;;;;;10.80;99.90;;;;;;4891150;29;20277;-59
2022/06/07 02:04:34;;;;;;;;;;;10.80;99.90;;;;;;4893673;29;20010;-58
2022/06/07 02:07:00;;;;;;;;;;;10.90;99.90;;;;;;4892007;29;19907;-58
2022/06/07 02:09:26;;;;;;;;;;;10.90;99.90;;;;;;4894387;29;19946;-58
2022/06/07 02:11:51;;;;;;;;;;;11.10;99.90;;;;;;4893460;29;20034;-58
2022/06/07 02:14:17;;;;;;;;;;;11.20;99.90;;;;;;4891555;29;19915;-58
2022/06/07 02:16:42;;;;;;;;;;;11.50;99.90;;;;;;4892485;29;20420;-57
2022/06/07 02:19:08;;;;;;;;;;;11.70;99.90;;;;;;4894523;29;19912;-58
2022/06/07 02:21:34;;;;;;;;;;;11.80;99.90;;;;;;4891521;29;20578;-58
2022/06/07 02:23:59;;;;;;;;;;;12.00;99.90;;;;;;4890955;29;19953;-57
2022/06/07 02:26:26;;;;;;;;;;;12.00;99.90;;;;;;4891638;29;19911;-58
2022/06/07 02:28:55;;;;;;;;;;;12.20;99.90;;;;;;4891290;29;19950;-58
2022/06/07 02:31:21;;;;;;;;;;;12.30;99.90;;;;;;4886071;29;20428;-58
2022/06/07 02:33:47;;;;;;;;;;;12.30;99.90;;;;;;4891353;29;19919;-58
2022/06/07 02:36:13;;;;;;;;;;;12.30;99.90;;;;;;4889254;29;19916;-58
2022/06/07 02:38:39;;;;;;;;;;;12.40;99.90;;;;;;4891318;29;19943;-58
2022/06/07 02:41:07;;;;;;;;;;;12.40;99.90;;;;;;4890928;29;20459;-58
2022/06/07 02:43:32;;;;;;;;;;;12.40;99.90;;;;;;4891311;29;19912;-59
2022/06/07 02:45:58;;;;;;;;;;;12.50;99.90;;;;;;4873434;29;20002;-57
2022/06/07 02:48:24;;;;;;;;;;;12.50;99.90;;;;;;4889757;29;19914;-58
2022/06/07 02:50:52;;;;;;;;;;;12.50;99.90;;;;;;4893992;29;19915;-58
2022/06/07 02:53:18;;;;;;;;;;;12.60;99.90;;;;;;4891376;29;19923;-57
2022/06/07 02:55:43;;;;;;;;;;;12.60;99.90;;;;;;4891242;29;19918;-58
2022/06/07 02:58:09;;;;;;;;;;;12.60;99.90;;;;;;4891246;29;19986;-58
2022/06/07 03:00:34;;;;;;;;;;;12.50;99.90;;;;;;4891090;29;19915;-58
2022/06/07 03:03:00;;;;;;;;;;;12.60;99.90;;;;;;4890881;29;19915;-58
2022/06/07 03:05:25;;;;;;;;;;;12.60;99.90;;;;;;4889257;29;19927;-58
2022/06/07 03:07:51;;;;;;;;;;;12.60;99.90;;;;;;4888604;29;19908;-58
2022/06/07 03:10:16;;;;;;;;;;;12.60;99.90;;;;;;4888862;29;19959;-58
2022/06/07 03:12:42;;;;;;;;;;;12.60;99.90;;;;;;4890812;29;20029;-57
2022/06/07 03:15:08;;;;;;;;;;;12.70;99.90;;;;;;4890116;29;20260;-57
2022/06/07 03:17:34;;;;;;;;;;;12.70;99.90;;;;;;4891968;29;19918;-58
2022/06/07 03:19:59;;;;;;;;;;;12.80;99.90;;;;;;4889995;29;19912;-57
2022/06/07 03:22:25;;;;;;;;;;;12.80;99.90;;;;;;4890198;29;19912;-58
2022/06/07 03:24:50;;;;;;;;;;;12.80;99.90;;;;;;4890031;29;19922;-57
2022/06/07 03:27:16;;;;;;;;;;;12.70;99.90;;;;;;4889674;29;19954;-58
2022/06/07 03:29:42;;;;;;;;;;;12.70;99.90;;;;;;4892801;29;19980;-57
2022/06/07 03:32:08;;;;;;;;;;;12.80;99.90;;;;;;4892764;29;20031;-57
2022/06/07 03:34:34;;;;;;;;;;;12.90;99.90;;;;;;4889350;29;19983;-57
2022/06/07 03:36:59;;;;;;;;;;;12.90;99.90;;;;;;4890634;29;20646;-58
2022/06/07 03:39:25;;;;;;;;;;;12.80;99.90;;;;;;4891408;29;20291;-57
2022/06/07 03:41:50;;;;;;;;;;;12.90;99.90;;;;;;4890444;29;20331;-57
2022/06/07 03:44:16;;;;;;;;;;;12.90;99.90;;;;;;4890310;29;20430;-58
2022/06/07 03:46:43;;;;;;;;;;;12.90;99.90;;;;;;4890452;29;19922;-57
2022/06/07 03:49:08;;;;;;;;;;;13.00;99.90;;;;;;4890159;29;19912;-57
2022/06/07 03:51:34;;;;;;;;;;;13.00;99.90;;;;;;4890881;29;19917;-57
2022/06/07 03:53:59;;;;;;;;;;;12.90;99.90;;;;;;4890415;29;19911;-57
2022/06/07 03:56:25;;;;;;;;;;;12.90;99.90;;;;;;4890191;29;19911;-57
2022/06/07 03:58:51;;;;;;;;;;;12.90;99.90;;;;;;4890359;29;20491;-57
2022/06/07 04:01:17;;;;;;;;;;;12.90;99.90;;;;;;4889980;29;19971;-57
2022/06/07 04:03:44;;;;;;;;;;;12.90;99.90;;;;;;4890655;29;20022;-57
2022/06/07 04:06:20;;;;;;;;;;;13.00;99.90;;;;;;4888277;29;19919;-58
2022/06/07 04:08:46;;;;;;;;;;;13.00;99.90;;;;;;4891012;29;19916;-57
2022/06/07 04:11:13;;;;;;;;;;;13.10;99.90;;;;;;4895889;29;19914;-57
2022/06/07 04:13:38;;;;;;;;;;;13.10;99.90;;;;;;4895839;29;19911;-58
2022/06/07 04:16:04;;;;;;;;;;;13.20;99.90;;;;;;4876907;29;19911;-58
2022/06/07 04:18:30;;;;;;;;;;;13.20;99.90;;;;;;4897553;29;19996;-57
2022/06/07 04:20:57;;;;;;;;;;;13.20;99.90;;;;;;4894744;29;20402;-57
2022/06/07 04:23:23;;;;;;;;;;;13.20;99.90;;;;;;4893048;29;19926;-58
2022/06/07 04:25:48;;;;;;;;;;;13.20;99.90;;;;;;4893941;29;19918;-57
2022/06/07 04:28:14;;;;;;;;;;;13.30;99.90;;;;;;4893218;29;20419;-57
2022/06/07 04:30:47;;;;;;;;;;;13.30;99.90;;;;;;4893667;29;19911;-58
2022/06/07 04:33:15;;;;;;;;;;;13.30;99.90;;;;;;4892776;29;20436;-58
2022/06/07 04:35:41;;;;;;;;;;;13.40;99.90;;;;;;4888379;29;20006;-57
2022/06/07 04:38:08;;;;;;;;;;;13.40;99.90;;;;;;4893016;29;19927;-57
2022/06/07 04:40:33;;;;;;;;;;;13.50;99.90;;;;;;4893547;29;20265;-57
2022/06/07 04:42:59;;;;;;;;;;;13.50;99.90;;;;;;4893649;29;19919;-57
2022/06/07 04:45:24;;;;;;;;;;;13.50;99.90;;;;;;4890824;29;19922;-57
2022/06/07 04:47:50;;;;;;;;;;;13.60;99.90;;;;;;4893033;29;20465;-57
2022/06/07 04:50:17;;;;;;;;;;;13.60;99.90;;;;;;4894430;29;20053;-57
2022/06/07 04:52:43;;;;;;;;;;;13.60;99.90;;;;;;4895687;29;19908;-57
2022/06/07 04:55:09;;;;;;;;;;;13.70;99.90;;;;;;4893804;29;19950;-57
2022/06/07 04:57:35;;;;;;;;;;;13.80;99.90;;;;;;4893200;29;20002;-57
2022/06/07 05:00:00;;;;;;;;;;;13.80;99.90;;;;;;4894035;29;19998;-57
2022/06/07 05:02:26;;;;;;;;;;;13.90;99.90;;;;;;4892579;29;19915;-58
2022/06/07 05:04:51;;;;;;;;;;;13.90;99.90;;;;;;4891251;29;20387;-58
2022/06/07 05:07:17;;;;;;;;;;;13.90;99.90;;;;;;4892439;29;19915;-57
2022/06/07 05:09:42;;;;;;;;;;;14.00;99.90;;;;;;4892996;29;20001;-57
2022/06/07 05:12:08;;;;;;;;;;;14.00;99.90;;;;;;4889746;29;20366;-57
2022/06/07 05:14:34;;;;;;;;;;;14.10;99.90;;;;;;4889971;29;20635;-57
2022/06/07 05:16:59;;;;;;;;;;;14.10;99.90;;;;;;4894857;29;19918;-57
2022/06/07 05:19:25;;;;;;;;;;;14.20;99.90;;;;;;4891326;29;20352;-57
2022/06/07 05:21:51;;;;;;;;;;;14.30;99.90;;;;;;4892995;29;19915;-57
2022/06/07 05:24:16;;;;;;;;;;;14.40;99.90;;;;;;4891963;29;20386;-58
2022/06/07 05:26:44;;;;;;;;;;;14.50;99.90;;;;;;4892827;29;19911;-57
2022/06/07 05:29:14;;;;;;;;;;;14.60;99.90;;;;;;4890464;29;19962;-57
2022/06/07 05:31:40;;;;;;;;;;;14.70;99.90;;;;;;4891664;29;20351;-57
2022/06/07 05:34:05;;;;;;;;;;;14.90;99.90;;;;;;4894684;29;20003;-56
2022/06/07 05:36:31;;;;;;;;;;;15.10;99.90;;;;;;4891894;29;19918;-58
2022/06/07 05:38:56;;;;;;;;;;;15.40;99.90;;;;;;4875392;29;19915;-57
2022/06/07 05:41:23;;;;;;;;;;;15.60;99.90;;;;;;4892982;29;19915;-57
2022/06/07 05:43:49;;;;;;;;;;;15.60;99.90;;;;;;4892542;29;19993;-57
2022/06/07 05:46:14;;;;;;;;;;;15.60;99.90;;;;;;4891766;29;19925;-57
2022/06/07 05:48:40;;;;;;;;;;;15.60;99.90;;;;;;4892252;29;19911;-58
2022/06/07 05:51:05;;;;;;;;;;;15.70;99.90;;;;;;4892257;29;19912;-57
2022/06/07 05:53:31;;;;;;;;;;;15.70;99.90;;;;;;4891550;29;20011;-57
2022/06/07 05:55:56;;;;;;;;;;;15.80;99.90;;;;;;4892163;29;19915;-57
2022/06/07 05:58:23;;;;;;;;;;;16.00;99.90;;;;;;4891957;29;19939;-58
2022/06/07 06:00:48;;;;;;;;;;;15.80;99.90;;;;;;4892116;29;19963;-57
2022/06/07 06:03:14;;;;;;;;;;;15.80;99.90;;;;;;4891479;29;19915;-58
2022/06/07 06:05:46;;;;;;;;;;;15.80;99.90;;;;;;4890302;29;19934;-57
2022/06/07 06:11:22;;;;;;;;;;;15.80;99.90;;;;;;4892903;29;20337;-57
2022/06/07 06:13:47;;;;;;;;;;;15.80;99.90;;;;;;4886963;29;19912;-58
2022/06/07 06:16:15;;;;;;;;;;;15.80;99.90;;;;;;4892049;29;19933;-57
2022/06/07 06:18:41;;;;;;;;;;;16.00;99.90;;;;;;4891868;29;19912;-57
2022/06/07 06:21:07;;;;;;;;;;;16.00;99.90;;;;;;4892275;29;19911;-57
2022/06/07 06:23:33;;;;;;;;;;;16.00;99.90;;;;;;4890972;29;19911;-58
2022/06/07 06:25:58;;;;;;;;;;;16.20;99.90;;;;;;4891114;29;20306;-58
2022/06/07 06:28:25;;;;;;;;;;;16.40;99.90;;;;;;4890481;29;19918;-58
2022/06/07 06:30:51;;;;;;;;;;;16.50;99.90;;;;;;4891328;29;19908;-58
2022/06/07 06:33:17;;;;;;;;;;;16.80;99.90;;;;;;4890285;29;19930;-57
2022/06/07 06:35:47;;;;;;;;;;;16.80;99.90;;;;;;4888529;29;19916;-58
2022/06/07 06:38:13;;;;;;;;;;;16.90;99.90;;;;;;4888376;29;19954;-57
2022/06/07 06:40:38;;;;;;;;;;;16.90;99.90;;;;;;4890894;29;19981;-58
2022/06/07 06:43:04;;;;;;;;;;;16.60;99.90;;;;;;4891150;29;19912;-58
2022/06/07 06:45:30;;;;;;;;;;;16.60;99.90;;;;;;4890197;29;20002;-58
2022/06/07 06:47:55;;;;;;;;;;;16.50;99.90;;;;;;4890800;29;19911;-58
2022/06/07 06:50:21;;;;;;;;;;;16.50;99.90;;;;;;4890159;29;19907;-57
2022/06/07 06:52:46;;;;;;;;;;;16.30;99.90;;;;;;4892982;29;19908;-57
2022/06/07 06:55:12;;;;;;;;;;;16.40;99.90;;;;;;4892546;29;19990;-57
2022/06/07 06:57:37;;;;;;;;;;;16.30;99.90;;;;;;4891217;29;19943;-57
2022/06/07 07:00:04;;;;;;;;;;;16.20;99.90;;;;;;4890758;29;20007;-57
2022/06/07 07:02:29;;;;;;;;;;;16.20;99.90;;;;;;4889830;29;19927;-57
2022/06/07 07:04:55;;;;;;;;;;;16.10;99.90;;;;;;4886270;29;19927;-57
2022/06/07 07:07:20;;;;;;;;;;;16.00;99.90;;;;;;4889934;29;20307;-57
2022/06/07 07:09:47;;;;;;;;;;;16.10;99.90;;;;;;4890482;29;19911;-57
2022/06/07 07:12:12;;;;;;;;;;;16.20;99.90;;;;;;4890086;29;20463;-57
2022/06/07 07:14:38;;;;;;;;;;;16.40;99.90;;;;;;4890617;29;20010;-57
2022/06/07 07:17:03;;;;;;;;;;;16.40;99.90;;;;;;4893221;29;19911;-57
2022/06/07 07:19:29;;;;;;;;;;;16.40;99.90;;;;;;4888527;29;20036;-58
2022/06/07 07:21:54;;;;;;;;;;;16.70;99.90;;;;;;4890315;29;19915;-58
2022/06/07 07:24:22;;;;;;;;;;;16.80;99.90;;;;;;4889997;29;19919;-58
2022/06/07 07:26:48;;;;;;;;;;;16.90;99.90;;;;;;4890408;29;20006;-57
2022/06/07 07:29:15;;;;;;;;;;;16.90;99.90;;;;;;4890142;29;19912;-57
2022/06/07 07:31:41;;;;;;;;;;;16.90;99.90;;;;;;4890782;29;20006;-58
2022/06/07 07:34:08;;;;;;;;;;;16.90;99.90;;;;;;4892986;29;20071;-57
2022/06/07 07:36:35;;;;;;;;;;;17.00;99.90;;;;;;4892033;29;19994;-58
2022/06/07 07:39:01;;;;;;;;;;;17.20;99.90;;;;;;4890450;29;19911;-57
2022/06/07 07:41:28;;;;;;;;;;;17.20;99.90;;;;;;4889821;29;19915;-57
2022/06/07 07:43:54;;;;;;;;;;;17.20;99.90;;;;;;4894028;29;19990;-57
2022/06/07 07:46:20;;;;;;;;;;;17.30;99.90;;;;;;4893647;29;19918;-57
2022/06/07 07:48:46;;;;;;;;;;;17.40;99.90;;;;;;4894134;29;20384;-57
2022/06/07 07:51:37;;;;;;;;;;;17.40;99.90;;;;;;4893677;29;19918;-57
2022/06/07 07:54:05;;;;;;;;;;;17.50;99.90;;;;;;4891163;29;20530;-58
2022/06/07 07:56:31;;;;;;;;;;;17.40;99.90;;;;;;4893392;29;19962;-57
2022/06/07 07:58:58;;;;;;;;;;;17.50;99.90;;;;;;4893933;29;19911;-57
2022/06/07 08:01:25;;;;;;;;;;;17.60;99.90;;;;;;4893254;29;19923;-58
2022/06/07 08:03:51;;;;;;;;;;;17.70;99.90;;;;;;4893602;29;19925;-57
2022/06/07 08:06:18;;;;;;;;;;;18.00;99.90;;;;;;4891262;29;19945;-58
2022/06/07 08:08:45;;;;;;;;;;;18.50;99.90;;;;;;4890203;29;20364;-57
2022/06/07 08:11:11;;;;;;;;;;;18.70;99.90;;;;;;4893628;29;19915;-57
2022/06/07 08:13:37;;;;;;;;;;;18.80;99.90;;;;;;4894809;29;19913;-57
2022/06/07 08:16:04;;;;;;;;;;;18.90;99.90;;;;;;4896027;29;19937;-58
2022/06/07 08:18:29;;;;;;;;;;;19.30;99.90;;;;;;4895006;29;20367;-58
2022/06/07 08:20:59;;;;;;;;;;;19.80;99.60;;;;;;4893351;29;19971;-58
2022/06/07 08:23:25;;;;;;;;;;;20.10;98.50;;;;;;4893805;29;19912;-57
2022/06/07 08:25:51;;;;;;;;;;;20.40;97.80;;;;;;4893724;29;19967;-58
2022/06/07 08:28:16;;;;;;;;;;;20.70;97.80;;;;;;4892714;29;20322;-59
2022/06/07 08:30:46;;;;;;;;;;;20.80;97.40;;;;;;4893232;29;19912;-58
2022/06/07 08:38:41;;;;;;;;;;;21.30;96.00;;;;;;4892437;29;19918;-57
2022/06/07 08:41:07;;;;;;;;;;;20.90;95.20;;;;;;4893469;29;20363;-58
2022/06/07 08:43:33;;;;;;;;;;;20.70;95.10;;;;;;4892428;29;19914;-58
2022/06/07 08:45:59;;;;;;;;;;;21.10;95.50;;;;;;4893217;29;19911;-58
2022/06/07 08:48:26;;;;;;;;;;;21.10;94.80;;;;;;4892456;29;19912;-58
2022/06/07 08:51:05;;;;;;;;;;;21.30;94.70;;;;;;4893287;29;19919;-58
2022/06/07 08:53:34;;;;;;;;;;;21.20;94.30;;;;;;4890469;29;19915;-58
2022/06/07 08:56:01;;;;;;;;;;;21.30;94.30;;;;;;4894799;29;19915;-58
2022/06/07 08:58:33;;;;;;;;;;;20.60;95.90;;;;;;4894037;29;19911;-57
2022/06/07 09:01:07;;;;;;;;;;;20.70;95.80;;;;;;4889383;29;19962;-57
2022/06/07 09:03:39;;;;;;;;;;;20.70;95.00;;;;;;4892883;29;20564;-58
2022/06/07 09:06:06;;;;;;;;;;;20.70;95.20;;;;;;4891453;29;20356;-58
2022/06/07 09:08:44;;;;;;;;;;;21.20;95.50;;;;;;4888191;29;19911;-57
2022/06/07 09:14:04;;;;;;;;;;;21.00;95.30;;;;;;4889135;29;20299;-58
2022/06/07 09:16:36;;;;;;;;;;;20.70;95.00;;;;;;4891932;29;20374;-58
2022/06/07 09:19:07;;;;;;;;;;;20.60;95.60;;;;;;4895442;29;19927;-57
2022/06/07 09:21:37;;;;;;;;;;;20.50;95.90;;;;;;4891692;29;19971;-58
2022/06/07 09:24:05;;;;;;;;;;;20.90;95.60;;;;;;4892420;29;19912;-58
2022/06/07 09:26:36;;;;;;;;;;;21.10;95.60;;;;;;4891705;29;19915;-57
2022/06/07 09:29:05;;;;;;;;;;;21.10;95.00;;;;;;4889502;29;20487;-58
2022/06/07 09:31:30;;;;;;;;;;;21.00;96.10;;;;;;4891495;29;20048;-57
2022/06/07 09:33:57;;;;;;;;;;;21.60;96.20;;;;;;4892813;29;20014;-58
2022/06/07 09:36:27;;;;;;;;;;;21.60;95.40;;;;;;4892306;29;20497;-58
2022/06/07 09:38:57;;;;;;;;;;;20.90;96.00;;;;;;4893681;29;19911;-57
2022/06/07 09:41:37;;;;;;;;;;;20.50;96.70;;;;;;4891468;29;19915;-58
2022/06/07 09:44:12;;;;;;;;;;;20.10;97.10;;;;;;4892411;29;20253;-58
2022/06/07 09:46:38;;;;;;;;;;;19.50;98.30;;;;;;4889591;29;20287;-58
2022/06/07 09:49:03;;;;;;;;;;;19.70;98.20;;;;;;4891707;29;19911;-57
2022/06/07 09:51:37;;;;;;;;;;;20.00;98.30;;;;;;4891341;29;20058;-57
2022/06/07 09:54:05;;;;;;;;;;;20.00;98.20;;;;;;4891447;29;19915;-58
2022/06/07 09:56:37;;;;;;;;;;;20.20;98.40;;;;;;4891330;29;19976;-57
2022/06/07 09:59:16;;;;;;;;;;;20.50;97.40;;;;;;4891820;29;20006;-58
2022/06/07 10:01:55;;;;;;;;;;;20.40;97.50;;;;;;4890888;29;19922;-57
2022/06/07 10:04:23;;;;;;;;;;;20.50;97.60;;;;;;4889232;29;20018;-58
2022/06/07 10:06:53;;;;;;;;;;;20.60;97.40;;;;;;4891369;29;19962;-58
2022/06/07 10:09:19;;;;;;;;;;;20.50;97.70;;;;;;4887519;29;19989;-57
2022/06/07 10:11:58;;;;;;;;;;;21.30;96.50;;;;;;4891742;29;19911;-57
2022/06/07 10:14:37;;;;;;;;;;;21.10;96.40;;;;;;4891408;29;19954;-58
2022/06/07 10:17:03;;;;;;;;;;;20.70;96.80;;;;;;4893325;29;19915;-57
2022/06/07 10:19:48;;;;;;;;;;;21.50;97.00;;;;;;4892904;29;20534;-58
2022/06/07 10:22:20;;;;;;;;;;;21.80;96.80;;;;;;4890890;29;20291;-58
2022/06/07 10:24:45;;;;;;;;;;;22.20;95.80;;;;;;4891614;29;19915;-58
2022/06/07 10:27:15;;;;;;;;;;;22.20;96.60;;;;;;4892291;29;19934;-58
2022/06/07 10:29:59;;;;;;;;;;;22.50;95.90;;;;;;4887247;29;19908;-57
2022/06/07 10:32:32;;;;;;;;;;;22.20;96.30;;;;;;4890509;29;19915;-57
2022/06/07 10:35:00;;;;;;;;;;;21.60;96.20;;;;;;4886379;29;19930;-58
2022/06/07 10:37:44;;;;;;;;;;;21.60;97.10;;;;;;4890397;29;19911;-58
2022/06/07 10:40:14;;;;;;;;;;;21.80;97.50;;;;;;4887687;29;19918;-57
2022/06/07 10:43:00;;;;;;;;;;;21.40;97.10;;;;;;4890217;29;20596;-57
2022/06/07 10:45:27;;;;;;;;;;;20.70;98.30;;;;;;4887096;29;19943;-57
2022/06/07 10:47:58;;;;;;;;;;;20.80;99.10;;;;;;4890631;29;19911;-58
2022/06/07 10:50:24;;;;;;;;;;;;;;;;;;4890573;29;19911;-58
2022/06/07 10:52:55;;;;;;;;;;;22.20;97.60;;;;;;4890788;29;19922;-57
2022/06/07 10:55:33;;;;;;;;;;;22.80;96.50;;;;;;4887957;29;19914;-58
2022/06/07 10:58:07;;;;;;;;;;;22.50;96.40;;;;;;4893499;29;20597;-58
2022/06/07 11:00:42;;;;;;;;;;;22.50;96.10;;;;;;4888556;29;19911;-58
2022/06/07 11:03:13;;;;;;;;;;;22.40;96.40;;;;;;4888852;29;19919;-58
2022/06/07 11:11:16;;;;;;;;;;;21.40;98.70;;;;;;4889264;29;20682;-57
2022/06/07 11:13:48;;;;;;;;;;;21.40;97.90;;;;;;4889957;29;19947;-58
2022/06/07 11:16:16;;;;;;;;;;;21.60;97.80;;;;;;4888015;29;19965;-59
2022/06/07 11:18:42;;;;;;;;;;;22.10;97.10;;;;;;4890967;29;20299;-58
2022/06/07 11:21:08;;;;;;;;;;;22.40;97.20;;;;;;4890513;29;19919;-57
2022/06/07 11:23:35;;;;;;;;;;;21.60;97.10;;;;;;4889965;29;19916;-58
2022/06/07 11:26:04;;;;;;;;;;;22.20;96.90;;;;;;4890351;29;19912;-58
2022/06/07 11:28:32;;;;;;;;;;;22.90;96.20;;;;;;4890246;29;20010;-57
2022/06/07 11:31:20;;;;;;;;;;;23.20;96.00;;;;;;4889117;29;19912;-58
2022/06/07 11:33:52;;;;;;;;;;;23.80;95.00;;;;;;4886284;29;20383;-58
2022/06/07 11:36:20;;;;;;;;;;;23.70;94.90;;;;;;4889599;29;20753;-58
2022/06/07 11:38:51;;;;;;;;;;;23.20;95.60;;;;;;4892312;29;19916;-58
2022/06/07 11:41:38;;;;;;;;;;;22.40;95.10;;;;;;4891689;29;20275;-58
2022/06/07 11:44:12;;;;;;;;;;;22.50;96.10;;;;;;4889525;29;19993;-58
2022/06/07 11:46:38;;;;;;;;;;;22.90;95.00;;;;;;4886596;29;20594;-58
2022/06/07 11:49:25;;;;;;;;;;;23.00;96.20;;;;;;4890311;29;19911;-58
2022/06/07 11:51:54;;;;;;;;;;;23.50;95.00;;;;;;4886968;29;19982;-58
2022/06/07 11:54:54;;;;;;;;;;;22.80;95.20;;;;;;4889971;29;19915;-58
2022/06/07 11:57:25;;;;;;;;;;;22.60;95.80;;;;;;4888976;29;20376;-58
2022/06/07 11:59:52;;;;;;;;;;;22.80;96.00;;;;;;4890155;29;20408;-58
2022/06/07 12:02:21;;;;;;;;;;;23.00;95.90;;;;;;4890005;29;19923;-58
2022/06/07 12:04:47;;;;;;;;;;;22.40;95.30;;;;;;4887683;29;19927;-58
2022/06/07 12:07:12;;;;;;;;;;;22.20;96.50;;;;;;4890052;29;19907;-58
2022/06/07 12:09:38;;;;;;;;;;;22.30;96.50;;;;;;4889448;29;20014;-58
2022/06/07 12:12:17;;;;;;;;;;;21.70;96.50;;;;;;4890023;29;19918;-58
2022/06/07 12:14:43;;;;;;;;;;;21.30;97.30;;;;;;4886953;29;19918;-59
2022/06/07 12:17:24;;;;;;;;;;;21.50;97.60;;;;;;4892535;29;19907;-58
2022/06/07 12:19:50;;;;;;;;;;;21.50;97.20;;;;;;4889132;29;20390;-58
2022/06/07 12:22:18;;;;;;;;;;;21.60;98.20;;;;;;4891006;29;20011;-57
2022/06/07 12:24:52;;;;;;;;;;;22.00;97.50;;;;;;4889356;29;19957;-57
2022/06/07 12:27:29;;;;;;;;;;;22.40;97.40;;;;;;4891053;29;19918;-58
2022/06/07 12:30:00;;;;;;;;;;;23.40;97.10;;;;;;4890090;29;19907;-58
2022/06/07 12:32:36;;;;;;;;;;;23.80;94.90;;;;;;4892652;29;19915;-58
2022/06/07 12:35:06;;;;;;;;;;;24.00;95.30;;;;;;4886935;29;19916;-58
2022/06/07 12:37:32;;;;;;;;;;;23.00;95.80;;;;;;4892570;29;19915;-57
2022/06/07 12:39:58;;;;;;;;;;;22.30;96.50;;;;;;4893059;29;20410;-58
2022/06/07 12:42:25;;;;;;;;;;;22.30;96.10;;;;;;4892757;29;19966;-57
2022/06/07 12:44:55;;;;;;;;;;;22.20;97.10;;;;;;4892649;29;19911;-58
2022/06/07 12:47:31;;;;;;;;;;;22.30;96.70;;;;;;4889786;29;19922;-58
2022/06/07 12:49:57;;;;;;;;;;;22.50;96.90;;;;;;4893164;29;19918;-59
2022/06/07 12:52:26;;;;;;;;;;;22.40;96.10;;;;;;4893084;29;19911;-58
2022/06/07 12:54:56;;;;;;;;;;;22.00;96.80;;;;;;4892810;29;20660;-58
2022/06/07 12:57:25;;;;;;;;;;;21.80;97.70;;;;;;4893723;29;19908;-58
2022/06/07 12:59:54;;;;;;;;;;;21.40;97.70;;;;;;4894665;29;19907;-58
2022/06/07 13:02:25;;;;;;;;;;;21.40;99.90;;;;;;4894482;29;19979;-58
2022/06/07 13:04:52;;;;;;;;;;;21.30;99.90;;;;;;4890463;29;20439;-58
2022/06/07 13:07:20;;;;;;;;;;;21.00;99.90;;;;;;4893279;29;19918;-58
2022/06/07 13:09:48;;;;;;;;;;;21.00;99.90;;;;;;4892450;29;19920;-58
2022/06/07 13:12:34;;;;;;;;;;;20.90;99.90;;;;;;4892697;29;19958;-59
2022/06/07 13:15:00;;;;;;;;;;;21.00;99.90;;;;;;4891967;29;19915;-58
2022/06/07 13:17:31;;;;;;;;;;;21.00;99.90;;;;;;4892910;29;19968;-58
2022/06/07 13:19:58;;;;;;;;;;;21.10;99.90;;;;;;4892335;29;19938;-58
2022/06/07 13:22:26;;;;;;;;;;;20.60;99.90;;;;;;4891968;29;19915;-58
2022/06/07 13:24:54;;;;;;;;;;;20.10;99.90;;;;;;4891392;29;19942;-58
2022/06/07 13:27:38;;;;;;;;;;;19.70;99.90;;;;;;4892341;29;19911;-58
2022/06/07 13:30:11;;;;;;;;;;;19.50;99.90;;;;;;4888927;29;20284;-58
2022/06/07 13:32:36;;;;;;;;;;;19.10;99.90;;;;;;4891933;29;19920;-58
2022/06/07 13:35:03;;;;;;;;;;;18.50;99.90;;;;;;4890509;29;20379;-58
2022/06/07 13:37:29;;;;;;;;;;;18.20;99.90;;;;;;4892266;29;20023;-58
2022/06/07 13:39:57;;;;;;;;;;;18.10;99.90;;;;;;4894513;29;19919;-58
2022/06/07 13:42:25;;;;;;;;;;;17.80;99.90;;;;;;4891341;29;19911;-57
2022/06/07 13:44:56;;;;;;;;;;;17.70;99.90;;;;;;4891320;29;19947;-58
2022/06/07 13:47:28;;;;;;;;;;;17.70;99.90;;;;;;4891956;29;20332;-58
2022/06/07 13:53:22;;;;;;;;;;;17.90;99.90;;;;;;4869707;29;19912;-57
2022/06/07 13:55:52;;;;;;;;;;;18.00;99.90;;;;;;4889020;29;19927;-58
2022/06/07 13:58:19;;;;;;;;;;;17.90;99.90;;;;;;4891622;29;19935;-58
2022/06/07 14:00:45;;;;;;;;;;;18.10;99.90;;;;;;4891101;29;19920;-58
2022/06/07 14:03:17;;;;;;;;;;;18.40;99.90;;;;;;4891753;29;19915;-58
2022/06/07 14:05:43;;;;;;;;;;;18.50;99.90;;;;;;4886470;29;19931;-58
2022/06/07 14:08:14;;;;;;;;;;;17.90;99.90;;;;;;4891665;29;20097;-58
2022/06/07 14:10:40;;;;;;;;;;;17.90;99.90;;;;;;4891056;29;19911;-58
2022/06/07 14:13:06;;;;;;;;;;;18.00;99.90;;;;;;4891597;29;19930;-57
2022/06/07 14:15:32;;;;;;;;;;;18.40;99.90;;;;;;4890628;29;19911;-57
2022/06/07 14:17:57;;;;;;;;;;;18.80;99.90;;;;;;4876938;29;19915;-58
2022/06/07 14:20:24;;;;;;;;;;;18.40;99.90;;;;;;4894194;29;19914;-58
2022/06/07 14:22:50;;;;;;;;;;;18.50;99.90;;;;;;4893447;29;19966;-58
2022/06/07 14:25:17;;;;;;;;;;;18.50;99.90;;;;;;4890988;29;19990;-58
2022/06/07 14:27:43;;;;;;;;;;;18.90;99.90;;;;;;4891078;29;19919;-58
2022/06/07 14:30:08;;;;;;;;;;;19.10;99.90;;;;;;4892387;29;19916;-58
2022/06/07 14:32:41;;;;;;;;;;;19.00;99.90;;;;;;4890755;29;19911;-58
2022/06/07 14:35:14;;;;;;;;;;;19.10;99.90;;;;;;4886468;29;19977;-58
2022/06/07 14:37:40;;;;;;;;;;;18.90;99.90;;;;;;4873480;29;20001;-59
2022/06/07 14:40:13;;;;;;;;;;;18.70;99.90;;;;;;4890759;29;20440;-59
2022/06/07 14:42:42;;;;;;;;;;;18.40;99.90;;;;;;4887197;29;19915;-58
2022/06/07 14:45:09;;;;;;;;;;;18.30;99.90;;;;;;4890675;29;19915;-58
2022/06/07 14:47:34;;;;;;;;;;;18.20;99.90;;;;;;4890475;29;20287;-59
2022/06/07 14:50:00;;;;;;;;;;;18.10;99.90;;;;;;4890870;29;19911;-58
2022/06/07 14:52:26;;;;;;;;;;;18.00;99.90;;;;;;4890000;29;19911;-58